createdAt,value
2023-02-11T00:01:19.371Z,64.1
2023-02-11T00:03:03.070Z,64.2
2023-02-11T00:04:46.776Z,64.2
2023-02-11T00:06:30.526Z,64.2
2023-02-11T00:08:14.182Z,64.2
2023-02-11T00:09:57.892Z,64.2
2023-02-11T00:11:41.635Z,64.3
2023-02-11T00:13:25.279Z,64.2
2023-02-11T00:15:09.002Z,64.2
2023-02-11T00:16:52.696Z,64.2
2023-02-11T00:18:36.394Z,64.2
2023-02-11T00:20:20.091Z,64.3
2023-02-11T00:22:03.798Z,64.2
2023-02-11T00:23:47.507Z,64.2
2023-02-11T00:25:31.235Z,64.2
2023-02-11T00:27:14.948Z,64.2
2023-02-11T00:28:58.633Z,64.2
2023-02-11T00:30:42.316Z,64.3
2023-02-11T00:32:26.016Z,64.2
2023-02-11T00:34:09.726Z,64.2
2023-02-11T00:35:53.434Z,64.3
2023-02-11T00:37:37.134Z,64.3
2023-02-11T00:39:20.822Z,64.3
2023-02-11T00:41:04.525Z,64.3
2023-02-11T00:42:48.231Z,64.3
2023-02-11T00:44:31.943Z,64.3
2023-02-11T00:46:15.630Z,64.3
2023-02-11T00:47:59.359Z,64.3
2023-02-11T00:49:43.039Z,64.3
2023-02-11T00:51:26.783Z,64.3
2023-02-11T00:53:10.444Z,64.3
2023-02-11T00:54:54.181Z,64.3
2023-02-11T00:56:37.846Z,64.3
2023-02-11T00:58:21.546Z,64.3
2023-02-11T01:00:05.250Z,64.3
2023-02-11T01:01:48.962Z,64.3
2023-02-11T01:03:32.660Z,64.3
2023-02-11T01:05:16.367Z,64.3
2023-02-11T01:07:00.072Z,64.3
2023-02-11T01:08:43.763Z,64.3
2023-02-11T01:10:27.476Z,64.3
2023-02-11T01:12:11.169Z,64.3
2023-02-11T01:13:54.876Z,64.4
2023-02-11T01:15:38.572Z,64.3
2023-02-11T01:17:22.312Z,64.3
2023-02-11T01:19:05.987Z,64.3
2023-02-11T01:20:49.696Z,64.3
2023-02-11T01:22:33.404Z,64.2
2023-02-11T01:24:17.094Z,64.2
2023-02-11T01:26:00.795Z,64.2
2023-02-11T01:27:44.495Z,64.1
2023-02-11T01:29:28.200Z,64.1
2023-02-11T01:31:11.907Z,64
2023-02-11T01:32:55.603Z,64
2023-02-11T01:34:39.313Z,64
2023-02-11T01:36:23.010Z,64
2023-02-11T01:38:06.831Z,63.9
2023-02-11T01:39:50.428Z,63.9
2023-02-11T01:41:34.125Z,63.9
2023-02-11T01:43:17.832Z,63.8
2023-02-11T01:45:01.537Z,63.8
2023-02-11T01:46:45.250Z,63.7
2023-02-11T01:48:28.956Z,63.7
2023-02-11T01:50:12.639Z,63.6
2023-02-11T01:51:56.340Z,63.6
2023-02-11T01:53:40.047Z,63.5
2023-02-11T01:55:23.798Z,63.6
2023-02-11T01:57:07.448Z,63.6
2023-02-11T01:58:51.161Z,63.5
2023-02-11T02:00:34.857Z,63.5
2023-02-11T02:02:18.567Z,63.5
2023-02-11T02:04:02.271Z,63.4
2023-02-11T02:05:45.956Z,63.4
2023-02-11T02:07:29.673Z,63.3
2023-02-11T02:09:13.384Z,63.3
2023-02-11T02:10:57.073Z,63.3
2023-02-11T02:12:40.781Z,63.2
2023-02-11T02:14:24.484Z,63.2
2023-02-11T02:16:08.184Z,63.3
2023-02-11T02:17:51.891Z,63.1
2023-02-11T02:19:35.588Z,63.1
2023-02-11T02:21:19.299Z,63.1
2023-02-11T02:23:03.002Z,63.1
2023-02-11T02:24:46.691Z,63.1
2023-02-11T02:26:30.397Z,63
2023-02-11T02:28:14.101Z,63
2023-02-11T02:29:57.797Z,62.9
2023-02-11T02:31:41.510Z,63
2023-02-11T02:33:25.270Z,63
2023-02-11T02:35:08.902Z,62.9
2023-02-11T02:36:52.633Z,62.9
2023-02-11T02:38:36.374Z,62.9
2023-02-11T02:40:20.050Z,62.8
2023-02-11T02:42:03.722Z,62.8
2023-02-11T02:43:47.417Z,62.8
2023-02-11T02:45:31.123Z,62.7
2023-02-11T02:47:14.823Z,62.8
2023-02-11T02:48:58.530Z,62.6
2023-02-11T02:50:42.227Z,62.7
2023-02-11T02:52:25.964Z,62.7
2023-02-11T02:54:09.637Z,62.6
2023-02-11T02:55:53.386Z,62.6
2023-02-11T02:57:37.042Z,62.6
2023-02-11T02:59:20.743Z,62.5
2023-02-11T03:01:04.445Z,62.5
2023-02-11T03:02:48.144Z,62.5
2023-02-11T03:04:31.850Z,62.5
2023-02-11T03:06:15.560Z,62.5
2023-02-11T03:07:59.252Z,62.5
2023-02-11T03:09:42.963Z,62.4
2023-02-11T03:11:26.662Z,62.4
2023-02-11T03:13:10.372Z,62.5
2023-02-11T03:14:54.083Z,62.4
2023-02-11T03:16:37.769Z,62.4
2023-02-11T03:18:21.468Z,62.4
2023-02-11T03:20:05.170Z,62.4
2023-02-11T03:21:48.880Z,62.4
2023-02-11T03:23:32.579Z,62.3
2023-02-11T03:25:16.306Z,62.2
2023-02-11T03:26:59.991Z,62.2
2023-02-11T03:28:43.699Z,62.2
2023-02-11T03:30:27.390Z,62.2
2023-02-11T03:32:11.087Z,62.2
2023-02-11T03:33:54.789Z,62.1
2023-02-11T03:35:38.489Z,62.1
2023-02-11T03:37:22.208Z,62.1
2023-02-11T03:39:05.895Z,62
2023-02-11T03:40:49.603Z,62.1
2023-02-11T03:42:33.291Z,62
2023-02-11T03:44:17.003Z,62.1
2023-02-11T03:46:00.710Z,62
2023-02-11T03:47:44.407Z,62
2023-02-11T03:49:28.118Z,62
2023-02-11T03:51:11.807Z,62
2023-02-11T03:52:55.514Z,61.9
2023-02-11T03:54:39.235Z,61.9
2023-02-11T03:56:22.926Z,61.9
2023-02-11T03:58:06.624Z,61.9
2023-02-11T03:59:50.335Z,61.9
2023-02-11T04:01:34.026Z,61.9
2023-02-11T04:03:17.734Z,61.8
2023-02-11T04:05:01.437Z,61.8
2023-02-11T04:06:45.138Z,61.7
2023-02-11T04:08:28.848Z,61.7
2023-02-11T04:10:12.543Z,61.7
2023-02-11T04:11:56.248Z,61.7
2023-02-11T04:13:39.957Z,61.7
2023-02-11T04:15:23.648Z,61.7
2023-02-11T04:17:07.351Z,61.7
2023-02-11T04:18:51.058Z,61.6
2023-02-11T04:20:34.747Z,61.7
2023-02-11T04:22:18.471Z,61.7
2023-02-11T04:24:02.183Z,61.6
2023-02-11T04:25:45.861Z,61.6
2023-02-11T04:27:29.568Z,61.6
2023-02-11T04:29:13.265Z,61.6
2023-02-11T04:30:56.976Z,61.6
2023-02-11T04:32:40.683Z,61.5
2023-02-11T04:34:24.376Z,61.5
2023-02-11T04:36:08.081Z,61.5
2023-02-11T04:37:51.784Z,61.5
2023-02-11T04:39:35.489Z,61.5
2023-02-11T04:41:19.193Z,61.5
2023-02-11T04:43:02.914Z,61.5
2023-02-11T04:44:46.598Z,61.5
2023-02-11T04:46:30.304Z,61.4
2023-02-11T04:48:14.029Z,61.4
2023-02-11T04:49:57.706Z,61.5
2023-02-11T04:51:41.408Z,61.4
2023-02-11T04:53:25.103Z,61.4
2023-02-11T04:55:08.810Z,61.4
2023-02-11T04:56:52.518Z,61.3
2023-02-11T04:58:36.217Z,61.3
2023-02-11T05:00:19.923Z,61.3
2023-02-11T05:02:03.620Z,61.2
2023-02-11T05:03:47.337Z,61.2
2023-02-11T05:05:31.027Z,61.2
2023-02-11T05:07:14.729Z,61.2
2023-02-11T05:08:58.437Z,61.2
2023-02-11T05:10:42.139Z,61.2
2023-02-11T05:12:25.838Z,61.2
2023-02-11T05:14:09.537Z,61.2
2023-02-11T05:15:53.244Z,61.1
2023-02-11T05:17:36.933Z,61.1
2023-02-11T05:19:20.663Z,61.1
2023-02-11T05:21:04.364Z,61.1
2023-02-11T05:22:48.061Z,61
2023-02-11T05:24:31.764Z,61
2023-02-11T05:26:15.461Z,61
2023-02-11T05:27:59.169Z,61
2023-02-11T05:29:42.970Z,61
2023-02-11T05:31:26.566Z,61
2023-02-11T05:33:10.272Z,61
2023-02-11T05:34:53.971Z,60.9
2023-02-11T05:36:37.677Z,60.9
2023-02-11T05:38:21.378Z,60.9
2023-02-11T05:40:05.088Z,61
2023-02-11T05:41:48.786Z,60.9
2023-02-11T05:43:32.488Z,60.8
2023-02-11T05:45:16.229Z,60.9
2023-02-11T05:46:59.899Z,60.8
2023-02-11T05:48:43.593Z,60.8
2023-02-11T05:50:27.294Z,60.8
2023-02-11T05:52:11.000Z,60.7
2023-02-11T05:53:54.711Z,60.8
2023-02-11T05:55:38.394Z,60.7
2023-02-11T05:57:22.100Z,60.8
2023-02-11T05:59:05.817Z,60.7
2023-02-11T06:00:49.523Z,60.7
2023-02-11T06:02:33.219Z,60.7
2023-02-11T06:04:16.930Z,60.7
2023-02-11T06:06:00.628Z,60.6
2023-02-11T06:07:44.329Z,60.6
2023-02-11T06:09:28.019Z,60.5
2023-02-11T06:11:11.724Z,60.5
2023-02-11T06:12:55.484Z,60.5
2023-02-11T06:14:39.127Z,60.5
2023-02-11T06:16:22.848Z,60.5
2023-02-11T06:18:06.662Z,60.5
2023-02-11T06:19:50.239Z,60.5
2023-02-11T06:21:33.942Z,60.4
2023-02-11T06:23:17.641Z,60.4
2023-02-11T06:25:01.387Z,60.4
2023-02-11T06:26:45.060Z,60.3
2023-02-11T06:28:28.756Z,60.3
2023-02-11T06:30:12.477Z,60.3
2023-02-11T06:31:56.173Z,60.2
2023-02-11T06:33:39.859Z,60.2
2023-02-11T06:35:23.570Z,60.4
2023-02-11T06:37:07.270Z,60.7
2023-02-11T06:38:50.984Z,60.9
2023-02-11T06:40:34.694Z,60.8
2023-02-11T06:42:18.374Z,60.8
2023-02-11T06:44:02.135Z,60.8
2023-02-11T06:45:45.805Z,60.8
2023-02-11T06:47:29.471Z,60.9
2023-02-11T06:49:13.183Z,60.9
2023-02-11T06:50:56.890Z,60.9
2023-02-11T06:52:40.599Z,60.9
2023-02-11T06:54:24.300Z,60.9
2023-02-11T06:56:08.001Z,61
2023-02-11T06:57:51.702Z,62.6
2023-02-11T06:59:35.405Z,63.1
2023-02-11T07:01:19.201Z,63.2
2023-02-11T07:03:02.835Z,63.5
2023-02-11T07:04:46.508Z,63.5
2023-02-11T07:06:30.189Z,63.3
2023-02-11T07:08:13.964Z,63.3
2023-02-11T07:09:57.721Z,63.7
2023-02-11T07:11:41.317Z,63.3
2023-02-11T07:13:25.028Z,63.3
2023-02-11T07:15:08.715Z,63.3
2023-02-11T07:16:52.425Z,63.3
2023-02-11T07:18:36.130Z,63.4
2023-02-11T07:20:19.845Z,63.2
2023-02-11T07:22:03.541Z,63
2023-02-11T07:23:47.245Z,62.9
2023-02-11T07:25:30.945Z,62.8
2023-02-11T07:27:14.690Z,62.8
2023-02-11T07:28:58.347Z,62.5
2023-02-11T07:30:42.058Z,62.4
2023-02-11T07:32:25.763Z,62.4
2023-02-11T07:34:09.448Z,62.3
2023-02-11T07:35:53.168Z,62.2
2023-02-11T07:37:36.882Z,62.1
2023-02-11T07:39:20.566Z,62
2023-02-11T07:41:04.270Z,62
2023-02-11T07:42:48.032Z,61.9
2023-02-11T07:44:31.669Z,61.9
2023-02-11T07:46:15.492Z,61.8
2023-02-11T07:49:42.792Z,61.6
2023-02-11T07:51:26.492Z,61.6
2023-02-11T07:53:10.183Z,61.6
2023-02-11T07:54:53.892Z,61.5
2023-02-11T07:56:37.602Z,61.5
2023-02-11T07:58:21.281Z,61.4
2023-02-11T08:00:04.996Z,61.4
2023-02-11T08:01:48.701Z,61.3
2023-02-11T08:03:32.395Z,61.3
2023-02-11T08:05:16.101Z,61.3
2023-02-11T08:06:59.801Z,61.2
2023-02-11T08:08:43.516Z,61.2
2023-02-11T08:10:27.207Z,61.1
2023-02-11T08:12:10.916Z,61.1
2023-02-11T08:13:54.616Z,61
2023-02-11T08:15:38.316Z,61
2023-02-11T08:17:22.080Z,61
2023-02-11T08:19:05.735Z,60.9
2023-02-11T08:20:49.422Z,60.9
2023-02-11T08:22:33.173Z,60.9
2023-02-11T08:24:16.824Z,60.8
2023-02-11T08:26:00.547Z,60.8
2023-02-11T08:27:44.230Z,60.7
2023-02-11T08:29:27.968Z,60.7
2023-02-11T08:31:11.691Z,60.6
2023-02-11T08:32:55.344Z,60.6
2023-02-11T08:34:39.065Z,60.6
2023-02-11T08:36:22.767Z,60.5
2023-02-11T08:38:06.492Z,60.5
2023-02-11T08:39:50.156Z,60.4
2023-02-11T08:41:33.842Z,60.4
2023-02-11T08:43:17.600Z,60.4
2023-02-11T08:45:01.290Z,60.3
2023-02-11T08:46:44.963Z,60.3
2023-02-11T08:48:28.662Z,60.3
2023-02-11T08:50:12.381Z,60.2
2023-02-11T08:51:56.089Z,60.1
2023-02-11T08:53:39.791Z,60.1
2023-02-11T08:55:23.479Z,60.1
2023-02-11T08:57:07.182Z,60
2023-02-11T08:58:50.925Z,60
2023-02-11T09:00:34.586Z,59.9
2023-02-11T09:02:18.290Z,59.9
2023-02-11T09:04:02.007Z,59.8
2023-02-11T09:05:45.689Z,59.8
2023-02-11T09:07:29.397Z,59.8
2023-02-11T09:09:13.098Z,59.8
2023-02-11T09:10:56.806Z,59.7
2023-02-11T09:12:40.509Z,59.7
2023-02-11T09:14:24.240Z,59.6
2023-02-11T09:16:07.955Z,59.6
2023-02-11T09:17:51.634Z,59.5
2023-02-11T09:19:35.311Z,59.5
2023-02-11T09:21:19.013Z,59.5
2023-02-11T09:23:02.725Z,59.5
2023-02-11T09:24:46.425Z,59.4
2023-02-11T09:26:30.131Z,59.4
2023-02-11T09:28:13.873Z,59.3
2023-02-11T09:29:57.605Z,59.3
2023-02-11T09:31:41.260Z,59.3
2023-02-11T09:33:24.938Z,59.3
2023-02-11T09:35:08.641Z,59.2
2023-02-11T09:36:52.350Z,59
2023-02-11T09:38:36.048Z,59
2023-02-11T09:40:19.755Z,59
2023-02-11T09:42:03.483Z,58.9
2023-02-11T09:43:47.174Z,58.9
2023-02-11T09:45:30.863Z,58.9
2023-02-11T09:47:14.565Z,58.8
2023-02-11T09:48:58.269Z,58.7
2023-02-11T09:50:41.986Z,58.7
2023-02-11T09:52:25.673Z,58.7
2023-02-11T09:54:09.376Z,58.9
2023-02-11T09:55:53.081Z,59
2023-02-11T09:57:36.786Z,59
2023-02-11T09:59:20.481Z,59.1
2023-02-11T10:01:04.186Z,59.2
2023-02-11T10:02:47.892Z,59.2
2023-02-11T10:04:31.604Z,59.3
2023-02-11T10:06:15.294Z,59.2
2023-02-11T10:07:59.006Z,59.2
2023-02-11T10:09:42.695Z,59.2
2023-02-11T10:11:26.401Z,59.1
2023-02-11T10:13:10.100Z,59.2
2023-02-11T10:14:53.825Z,59.2
2023-02-11T10:16:37.507Z,59.3
2023-02-11T10:18:21.237Z,59.3
2023-02-11T10:20:04.910Z,59.3
2023-02-11T10:21:48.617Z,59.3
2023-02-11T10:23:32.329Z,59.3
2023-02-11T10:25:16.022Z,59.3
2023-02-11T10:26:59.724Z,59.3
2023-02-11T10:28:43.435Z,59.3
2023-02-11T10:30:27.128Z,59.2
2023-02-11T10:32:10.832Z,59.3
2023-02-11T10:33:54.534Z,59.3
2023-02-11T10:35:38.286Z,59.3
2023-02-11T10:37:21.938Z,59.3
2023-02-11T10:39:05.643Z,59.3
2023-02-11T10:40:49.351Z,59.4
2023-02-11T10:42:33.057Z,59.4
2023-02-11T10:44:16.747Z,59.4
2023-02-11T10:46:00.451Z,59.4
2023-02-11T10:47:44.155Z,59.4
2023-02-11T10:49:27.854Z,59.5
2023-02-11T10:51:11.564Z,59.5
2023-02-11T10:52:55.262Z,59.5
2023-02-11T10:54:38.962Z,59.5
2023-02-11T10:56:22.672Z,59.4
2023-02-11T10:58:06.402Z,59.5
2023-02-11T10:59:50.082Z,59.3
2023-02-11T11:01:33.776Z,59.2
2023-02-11T11:03:17.486Z,59.2
2023-02-11T11:05:01.264Z,59.2
2023-02-11T11:06:45.058Z,59.1
2023-02-11T11:08:28.603Z,59.1
2023-02-11T11:10:12.445Z,59
2023-02-11T11:11:56.201Z,59
2023-02-11T11:13:39.867Z,59.1
2023-02-11T11:15:23.572Z,59.1
2023-02-11T11:17:07.117Z,59.1
2023-02-11T11:18:50.967Z,59.1
2023-02-11T11:20:34.663Z,59.1
2023-02-11T11:22:18.399Z,59.1
2023-02-11T11:24:01.944Z,59.2
2023-02-11T11:25:45.796Z,59.2
2023-02-11T11:27:29.320Z,59.2
2023-02-11T11:29:13.023Z,59.2
2023-02-11T11:30:56.911Z,59.2
2023-02-11T11:32:40.428Z,59.2
2023-02-11T11:34:24.146Z,59.2
2023-02-11T11:36:07.822Z,59.2
2023-02-11T11:37:51.538Z,59.3
2023-02-11T11:39:35.269Z,59.3
2023-02-11T11:41:18.935Z,59.3
2023-02-11T11:43:02.680Z,59.3
2023-02-11T11:44:46.337Z,59.3
2023-02-11T11:46:30.040Z,59.3
2023-02-11T11:48:13.750Z,59.4
2023-02-11T11:49:57.438Z,59.4
2023-02-11T11:51:41.143Z,59.4
2023-02-11T11:53:24.859Z,59.4
2023-02-11T11:55:08.546Z,59.4
2023-02-11T11:56:52.250Z,59.4
2023-02-11T11:58:35.988Z,59.4
2023-02-11T12:00:19.650Z,59.4
2023-02-11T12:02:03.350Z,59.5
2023-02-11T12:03:47.061Z,59.4
2023-02-11T12:05:30.772Z,59.4
2023-02-11T12:07:14.462Z,59.4
2023-02-11T12:08:58.168Z,59.4
2023-02-11T12:10:41.867Z,59.5
2023-02-11T12:12:25.575Z,59.6
2023-02-11T12:14:09.276Z,59.6
2023-02-11T12:15:53.031Z,59.7
2023-02-11T12:17:36.683Z,59.7
2023-02-11T12:19:20.380Z,59.8
2023-02-11T12:21:04.074Z,59.8
2023-02-11T12:22:47.826Z,59.9
2023-02-11T12:24:31.487Z,59.9
2023-02-11T12:26:15.224Z,59.9
2023-02-11T12:27:58.888Z,59.9
2023-02-11T12:29:42.689Z,57.6
2023-02-11T12:31:26.310Z,53.7
2023-02-11T12:33:10.000Z,51
2023-02-11T12:34:53.716Z,46.1
2023-02-11T12:36:37.409Z,42.7
2023-02-11T12:38:21.111Z,53.2
2023-02-11T12:40:04.833Z,48.6
2023-02-11T12:41:48.509Z,49.5
2023-02-11T12:43:32.393Z,49.3
2023-02-11T12:45:15.921Z,50.3
2023-02-11T12:46:59.633Z,51.2
2023-02-11T12:48:43.323Z,52
2023-02-11T12:50:27.028Z,52.3
2023-02-11T12:52:10.722Z,52.8
2023-02-11T12:53:54.428Z,53.4
2023-02-11T12:55:38.134Z,53.6
2023-02-11T12:57:21.993Z,53.8
2023-02-11T12:59:05.539Z,54.1
2023-02-11T13:00:49.238Z,54.4
2023-02-11T13:02:32.944Z,54.6
2023-02-11T13:06:00.431Z,54.8
2023-02-11T13:07:44.065Z,54.9
2023-02-11T13:09:27.758Z,55.1
2023-02-11T13:11:11.459Z,55.2
2023-02-11T13:12:55.167Z,55.4
2023-02-11T13:14:38.868Z,55.4
2023-02-11T13:16:22.573Z,55.6
2023-02-11T13:18:06.272Z,55.7
2023-02-11T13:19:49.973Z,55.9
2023-02-11T13:21:33.688Z,56
2023-02-11T13:23:17.389Z,56
2023-02-11T13:25:01.082Z,56.1
2023-02-11T13:26:44.785Z,56.1
2023-02-11T13:28:28.543Z,56.2
2023-02-11T13:30:12.316Z,56.2
2023-02-11T13:33:39.839Z,56.3
2023-02-11T13:35:23.294Z,56.3
2023-02-11T13:37:06.998Z,56.4
2023-02-11T13:38:50.696Z,56.4
2023-02-11T13:40:34.403Z,56.4
2023-02-11T13:42:18.105Z,56.4
2023-02-11T13:44:01.867Z,56.6
2023-02-11T13:45:45.514Z,56.6
2023-02-11T13:47:29.212Z,56.8
2023-02-11T13:49:12.920Z,56.8
2023-02-11T13:50:56.668Z,56.9
2023-02-11T13:52:40.538Z,57
2023-02-11T13:54:24.045Z,57.1
2023-02-11T13:56:07.783Z,57.1
2023-02-11T13:57:51.433Z,57.3
2023-02-11T13:59:35.181Z,57.4
2023-02-11T14:01:18.836Z,57.4
2023-02-11T14:03:02.537Z,57.5
2023-02-11T14:04:46.241Z,57.5
2023-02-11T14:06:29.934Z,57.5
2023-02-11T14:08:13.691Z,57.5
2023-02-11T14:09:57.343Z,57.4
2023-02-11T14:11:41.059Z,57.3
2023-02-11T14:13:24.758Z,57.3
2023-02-11T14:15:08.449Z,57.3
2023-02-11T14:16:52.162Z,57.4
2023-02-11T14:18:35.857Z,57.4
2023-02-11T14:20:19.574Z,57.4
2023-02-11T14:22:03.329Z,57.3
2023-02-11T14:23:46.965Z,57.3
2023-02-11T14:25:30.675Z,57.3
2023-02-11T14:27:14.377Z,57.3
2023-02-11T14:28:58.093Z,57.3
2023-02-11T14:30:41.785Z,57.3
2023-02-11T14:32:25.491Z,57.2
2023-02-11T14:34:09.177Z,57.2
2023-02-11T14:35:53.137Z,57.3
2023-02-11T14:37:36.628Z,57.3
2023-02-11T14:39:20.291Z,57.4
2023-02-11T14:41:03.995Z,57.5
2023-02-11T14:42:47.703Z,57.6
2023-02-11T14:44:31.411Z,57.6
2023-02-11T14:46:15.108Z,57.5
2023-02-11T14:47:58.859Z,57.4
2023-02-11T14:49:42.506Z,57.3
2023-02-11T14:51:26.249Z,57.2
2023-02-11T14:53:09.905Z,56.7
2023-02-11T14:54:53.630Z,56.3
2023-02-11T14:56:37.352Z,56
2023-02-11T14:58:21.081Z,55.7
2023-02-11T15:00:04.703Z,55.4
2023-02-11T15:01:48.413Z,55.3
2023-02-11T15:03:32.138Z,54.9
2023-02-11T15:05:15.818Z,54.6
2023-02-11T15:06:59.529Z,54.4
2023-02-11T15:08:43.229Z,54.2
2023-02-11T15:10:26.926Z,54.2
2023-02-11T15:12:10.675Z,54
2023-02-11T15:13:54.374Z,53.8
2023-02-11T15:15:38.027Z,53.7
2023-02-11T15:17:21.728Z,53.8
2023-02-11T15:19:05.438Z,53.9
2023-02-11T15:20:49.143Z,54.1
2023-02-11T15:22:32.847Z,54.4
2023-02-11T15:24:16.548Z,54.5
2023-02-11T15:26:00.250Z,54.6
2023-02-11T15:27:43.974Z,54.7
2023-02-11T15:29:27.657Z,54.9
2023-02-11T15:31:11.350Z,54.9
2023-02-11T15:32:55.061Z,54.9
2023-02-11T15:34:38.759Z,54.8
2023-02-11T15:36:22.462Z,54.9
2023-02-11T15:38:06.165Z,54.9
2023-02-11T15:39:49.877Z,55
2023-02-11T15:41:33.631Z,55
2023-02-11T15:43:17.275Z,55
2023-02-11T15:45:00.973Z,55.1
2023-02-11T15:46:44.682Z,55.2
2023-02-11T15:48:28.386Z,55.3
2023-02-11T15:50:12.081Z,55.4
2023-02-11T15:51:55.804Z,55.5
2023-02-11T15:53:39.483Z,55.4
2023-02-11T15:55:23.201Z,55.4
2023-02-11T15:57:06.936Z,55.5
2023-02-11T15:58:50.592Z,55.5
2023-02-11T16:00:34.341Z,55.4
2023-02-11T16:02:17.998Z,55.5
2023-02-11T16:04:01.768Z,55.5
2023-02-11T16:05:45.506Z,55.5
2023-02-11T16:07:29.098Z,55.4
2023-02-11T16:09:12.811Z,55.5
2023-02-11T16:10:56.512Z,55.5
2023-02-11T16:12:40.210Z,55.5
2023-02-11T16:14:23.922Z,55.5
2023-02-11T16:16:07.624Z,55.5
2023-02-11T16:17:51.319Z,55.5
2023-02-11T16:19:35.016Z,55.5
2023-02-11T16:21:18.727Z,55.4
2023-02-11T16:23:04.626Z,55.4
2023-02-11T16:24:46.132Z,55.4
2023-02-11T16:26:29.876Z,55.4
2023-02-11T16:28:13.539Z,55.4
2023-02-11T16:29:57.232Z,55.3
2023-02-11T16:31:40.946Z,55.3
2023-02-11T16:33:24.650Z,55.3
2023-02-11T16:35:08.439Z,55.3
2023-02-11T16:36:52.052Z,55.3
2023-02-11T16:38:36.803Z,55.2
2023-02-11T16:40:19.448Z,55.2
2023-02-11T16:42:03.147Z,55.2
2023-02-11T16:43:46.857Z,55.1
2023-02-11T16:45:30.556Z,55
2023-02-11T16:47:14.268Z,55
2023-02-11T16:48:58.005Z,55
2023-02-11T16:50:41.666Z,55.2
2023-02-11T16:52:25.441Z,55.2
2023-02-11T16:54:09.088Z,55.4
2023-02-11T16:55:52.795Z,55.5
2023-02-11T16:57:36.482Z,55.5
2023-02-11T16:59:20.184Z,55.6
2023-02-11T17:01:03.920Z,55.8
2023-02-11T17:02:47.587Z,55.9
2023-02-11T17:04:31.312Z,56
2023-02-11T17:06:14.990Z,56.1
2023-02-11T17:07:58.690Z,56.3
2023-02-11T17:09:42.395Z,56.4
2023-02-11T17:11:26.110Z,56.5
2023-02-11T17:13:09.794Z,56.6
2023-02-11T17:14:53.501Z,56.6
2023-02-11T17:16:37.246Z,56.7
2023-02-11T17:18:20.899Z,56.8
2023-02-11T17:20:04.613Z,56.9
2023-02-11T17:21:48.310Z,56.9
2023-02-11T17:23:32.239Z,57
2023-02-11T17:25:15.707Z,57
2023-02-11T17:26:59.409Z,57
2023-02-11T17:28:43.611Z,57.1
2023-02-11T17:30:26.818Z,57.1
2023-02-11T17:32:10.520Z,57.2
2023-02-11T17:33:54.321Z,57.3
2023-02-11T17:35:37.912Z,57.3
2023-02-11T17:37:21.636Z,57.4
2023-02-11T17:39:05.331Z,57.3
2023-02-11T17:40:49.028Z,57.4
2023-02-11T17:42:32.733Z,57.4
2023-02-11T17:44:16.423Z,57.4
2023-02-11T17:46:00.142Z,57.4
2023-02-11T17:47:43.846Z,57.4
2023-02-11T17:49:27.542Z,57.4
2023-02-11T17:51:11.296Z,57.4
2023-02-11T17:52:54.948Z,57.4
2023-02-11T17:54:38.656Z,57.4
2023-02-11T17:56:22.349Z,57.4
2023-02-11T17:58:06.085Z,57.5
2023-02-11T17:59:49.757Z,57.5
2023-02-11T18:01:33.467Z,57.5
2023-02-11T18:03:19.609Z,57.4
2023-02-11T18:05:00.910Z,57.4
2023-02-11T18:06:44.565Z,57.4
2023-02-11T18:08:28.332Z,57.3
2023-02-11T18:10:11.966Z,57.3
2023-02-11T18:11:55.739Z,57.3
2023-02-11T18:13:40.206Z,57.3
2023-02-11T18:15:23.095Z,57.3
2023-02-11T18:17:06.772Z,57.3
2023-02-11T18:18:50.474Z,57.4
2023-02-11T18:20:34.183Z,57.4
2023-02-11T18:22:17.877Z,57.4
2023-02-11T18:24:01.581Z,57.5
2023-02-11T18:25:45.292Z,57.5
2023-02-11T18:27:28.991Z,57.6
2023-02-11T18:29:12.713Z,57.6
2023-02-11T18:30:56.404Z,57.7
2023-02-11T18:32:40.160Z,57.7
2023-02-11T18:34:23.808Z,57.8
2023-02-11T18:36:07.502Z,57.8
2023-02-11T18:37:51.210Z,57.9
2023-02-11T18:39:34.913Z,57.9
2023-02-11T18:41:18.616Z,57.9
2023-02-11T18:43:02.326Z,58
2023-02-11T18:46:29.733Z,58
2023-02-11T18:48:13.431Z,58.1
2023-02-11T18:49:57.124Z,58.1
2023-02-11T18:51:40.828Z,58.1
2023-02-11T18:53:24.546Z,58.1
2023-02-11T18:55:08.227Z,58.2
2023-02-11T18:58:36.758Z,58.2
2023-02-11T19:00:19.344Z,58.2
2023-02-11T19:02:03.051Z,58.2
2023-02-11T19:03:46.746Z,58.2
2023-02-11T19:05:30.457Z,58.1
2023-02-11T19:07:14.201Z,58.1
2023-02-11T19:08:57.852Z,58.3
2023-02-11T19:10:41.566Z,58.4
2023-02-11T19:12:25.261Z,58.4
2023-02-11T19:14:08.967Z,58.6
2023-02-11T19:15:52.674Z,58.6
2023-02-11T19:17:36.353Z,58.6
2023-02-11T19:19:20.067Z,58.7
2023-02-11T19:21:03.776Z,58.7
2023-02-11T19:22:47.473Z,58.8
2023-02-11T19:24:31.175Z,58.8
2023-02-11T19:26:14.880Z,58.7
2023-02-11T19:27:58.583Z,58.8
2023-02-11T19:29:42.294Z,58.8
2023-02-11T19:31:25.984Z,58.7
2023-02-11T19:33:09.690Z,58.7
2023-02-11T19:34:53.408Z,58.7
2023-02-11T19:36:37.095Z,58.7
2023-02-11T19:38:21.023Z,58.7
2023-02-11T19:41:48.200Z,58.8
2023-02-11T19:43:31.921Z,58.8
2023-02-11T19:45:15.607Z,58.8
2023-02-11T19:46:59.308Z,58.8
2023-02-11T19:48:43.042Z,58.8
2023-02-11T19:50:26.718Z,58.8
2023-02-11T19:52:10.412Z,58.8
2023-02-11T19:53:54.118Z,58.8
2023-02-11T19:55:37.809Z,58.9
2023-02-11T19:57:21.520Z,58.9
2023-02-11T19:59:05.221Z,58.9
2023-02-11T20:00:48.921Z,58.9
2023-02-11T20:02:32.624Z,58.9
2023-02-11T20:04:16.328Z,58.9
2023-02-11T20:06:00.028Z,58.9
2023-02-11T20:07:43.741Z,58.9
2023-02-11T20:09:27.437Z,58.9
2023-02-11T20:11:11.140Z,58.9
2023-02-11T20:12:54.845Z,58.9
2023-02-11T20:14:38.538Z,58.9
2023-02-11T20:16:22.234Z,58.9
2023-02-11T20:18:05.951Z,58.9
2023-02-11T20:19:49.644Z,58.9
2023-02-11T20:21:33.356Z,58.9
2023-02-11T20:23:17.054Z,58.9
2023-02-11T20:25:00.745Z,58.9
2023-02-11T20:26:44.473Z,58.9
2023-02-11T20:28:28.153Z,58.9
2023-02-11T20:30:11.871Z,58.9
2023-02-11T20:31:55.564Z,58.9
2023-02-11T20:33:39.266Z,58.9
2023-02-11T20:35:23.287Z,58.9
2023-02-11T20:37:06.679Z,59
2023-02-11T20:38:50.369Z,58.9
2023-02-11T20:40:34.072Z,59
2023-02-11T20:42:17.828Z,59
2023-02-11T20:44:01.501Z,59
2023-02-11T20:45:45.192Z,59
2023-02-11T20:47:28.879Z,59
2023-02-11T20:49:12.587Z,59
2023-02-11T20:50:56.285Z,59
2023-02-11T20:52:39.988Z,59
2023-02-11T20:54:23.737Z,59
2023-02-11T20:56:07.395Z,59
2023-02-11T20:57:51.142Z,59
2023-02-11T20:59:34.799Z,59
2023-02-11T21:01:18.499Z,59
2023-02-11T21:03:02.220Z,59
2023-02-11T21:04:45.914Z,59
2023-02-11T21:06:29.605Z,59
2023-02-11T21:08:13.329Z,59
2023-02-11T21:09:57.021Z,59
2023-02-11T21:11:40.721Z,59.1
2023-02-11T21:13:24.417Z,59
2023-02-11T21:15:08.135Z,59
2023-02-11T21:16:51.823Z,59
2023-02-11T21:18:35.531Z,59
2023-02-11T21:20:19.284Z,59
2023-02-11T21:22:02.950Z,59
2023-02-11T21:23:46.643Z,59
2023-02-11T21:25:30.346Z,59
2023-02-11T21:27:14.050Z,59
2023-02-11T21:28:58.038Z,59
2023-02-11T21:30:41.449Z,59
2023-02-11T21:32:25.168Z,59
2023-02-11T21:34:08.881Z,59
2023-02-11T21:35:52.569Z,59
2023-02-11T21:37:36.279Z,59
2023-02-11T21:39:19.985Z,59
2023-02-11T21:41:03.662Z,59
2023-02-11T21:42:47.368Z,59.1
2023-02-11T21:44:31.069Z,59
2023-02-11T21:46:14.771Z,59
2023-02-11T21:47:58.493Z,59
2023-02-11T21:49:42.186Z,59.2
2023-02-11T21:51:25.918Z,59.1
2023-02-11T21:53:09.618Z,59.1
2023-02-11T21:54:53.289Z,59.1
2023-02-11T21:56:37.024Z,59.1
2023-02-11T21:58:20.692Z,59
2023-02-11T22:00:04.408Z,59
2023-02-11T22:01:48.101Z,59
2023-02-11T22:03:31.815Z,59
2023-02-11T22:05:15.509Z,58.9
2023-02-11T22:06:59.204Z,58.9
2023-02-11T22:08:42.907Z,58.9
2023-02-11T22:10:26.612Z,58.8
2023-02-11T22:12:10.352Z,58.8
2023-02-11T22:13:54.017Z,58.7
2023-02-11T22:15:37.720Z,58.7
2023-02-11T22:17:21.436Z,58.7
2023-02-11T22:19:05.125Z,58.7
2023-02-11T22:20:48.820Z,58.8
2023-02-11T22:22:32.761Z,58.8
2023-02-11T22:24:16.242Z,58.8
2023-02-11T22:25:59.981Z,58.8
2023-02-11T22:27:43.677Z,58.9
2023-02-11T22:29:27.347Z,58.9
2023-02-11T22:31:11.068Z,58.9
2023-02-11T22:32:54.740Z,58.9
2023-02-11T22:34:38.432Z,58.9
2023-02-11T22:36:22.156Z,59
2023-02-11T22:38:05.874Z,59
2023-02-11T22:39:49.553Z,59
2023-02-11T22:41:33.252Z,59
2023-02-11T22:43:16.944Z,59
2023-02-11T22:45:00.660Z,59
2023-02-11T22:46:44.395Z,59
2023-02-11T22:48:28.057Z,59
2023-02-11T22:50:11.792Z,59
2023-02-11T22:51:55.465Z,59
2023-02-11T22:53:39.173Z,59.1
2023-02-11T22:55:22.862Z,59
2023-02-11T22:57:06.559Z,59
2023-02-11T22:58:50.289Z,59
2023-02-11T23:00:33.990Z,59
2023-02-11T23:02:17.668Z,59
2023-02-11T23:04:01.384Z,59
2023-02-11T23:05:45.085Z,59
2023-02-11T23:07:28.780Z,59
2023-02-11T23:09:12.501Z,59.1
2023-02-11T23:10:56.185Z,59.1
2023-02-11T23:12:39.914Z,59.1
2023-02-11T23:14:23.583Z,59.1
2023-02-11T23:16:07.286Z,59.1
2023-02-11T23:17:50.997Z,59.1
2023-02-11T23:19:34.692Z,59.1
2023-02-11T23:21:18.383Z,59.1
2023-02-11T23:23:02.107Z,59.1
2023-02-11T23:24:45.801Z,59.1